sensor_id;sensor_type;location;lat;lon;timestamp;P1;durP1;ratioP1;P2;durP2;ratioP2
23586;SDS011;11971;51.148;4.104;2022-12-05T00:01:17;88.50;;;41.97;;
23586;SDS011;11971;51.148;4.104;2022-12-05T00:03:48;92.68;;;42.08;;
23586;SDS011;11971;51.148;4.104;2022-12-05T00:06:15;88.47;;;40.38;;
23586;SDS011;11971;51.148;4.104;2022-12-05T00:08:44;88.28;;;41.60;;
23586;SDS011;11971;51.148;4.104;2022-12-05T00:11:12;89.32;;;42.15;;
23586;SDS011;11971;51.148;4.104;2022-12-05T00:13:39;92.80;;;41.50;;
23586;SDS011;11971;51.148;4.104;2022-12-05T00:16:07;89.20;;;41.40;;
23586;SDS011;11971;51.148;4.104;2022-12-05T00:18:34;93.13;;;43.17;;
23586;SDS011;11971;51.148;4.104;2022-12-05T00:21:01;86.72;;;41.78;;
23586;SDS011;11971;51.148;4.104;2022-12-05T00:23:28;85.95;;;40.63;;
23586;SDS011;11971;51.148;4.104;2022-12-05T00:25:56;83.95;;;40.33;;
23586;SDS011;11971;51.148;4.104;2022-12-05T00:28:23;92.95;;;42.13;;
23586;SDS011;11971;51.148;4.104;2022-12-05T00:30:49;89.35;;;41.72;;
23586;SDS011;11971;51.148;4.104;2022-12-05T00:33:16;91.00;;;42.63;;
23586;SDS011;11971;51.148;4.104;2022-12-05T00:35:42;85.60;;;40.10;;
23586;SDS011;11971;51.148;4.104;2022-12-05T00:38:09;82.25;;;40.50;;
23586;SDS011;11971;51.148;4.104;2022-12-05T00:40:36;87.80;;;41.15;;
23586;SDS011;11971;51.148;4.104;2022-12-05T00:43:04;84.38;;;41.03;;
23586;SDS011;11971;51.148;4.104;2022-12-05T00:45:30;86.27;;;40.83;;
23586;SDS011;11971;51.148;4.104;2022-12-05T00:47:57;85.32;;;40.90;;
23586;SDS011;11971;51.148;4.104;2022-12-05T00:50:23;87.97;;;41.58;;
23586;SDS011;11971;51.148;4.104;2022-12-05T00:52:50;89.18;;;40.70;;
23586;SDS011;11971;51.148;4.104;2022-12-05T00:55:17;92.07;;;41.30;;
23586;SDS011;11971;51.148;4.104;2022-12-05T00:57:43;84.65;;;40.08;;
23586;SDS011;11971;51.148;4.104;2022-12-05T01:00:12;82.00;;;40.10;;
23586;SDS011;11971;51.148;4.104;2022-12-05T01:05:05;81.25;;;39.30;;
23586;SDS011;11971;51.148;4.104;2022-12-05T01:07:33;89.72;;;40.75;;
23586;SDS011;11971;51.148;4.104;2022-12-05T01:09:59;83.22;;;40.38;;
23586;SDS011;11971;51.148;4.104;2022-12-05T01:12:26;87.25;;;41.40;;
23586;SDS011;11971;51.148;4.104;2022-12-05T01:14:53;91.45;;;40.38;;
23586;SDS011;11971;51.148;4.104;2022-12-05T01:17:21;85.43;;;41.72;;
23586;SDS011;11971;51.148;4.104;2022-12-05T01:19:48;95.47;;;43.30;;
23586;SDS011;11971;51.148;4.104;2022-12-05T01:22:14;88.97;;;41.00;;
23586;SDS011;11971;51.148;4.104;2022-12-05T01:24:41;87.10;;;39.95;;
23586;SDS011;11971;51.148;4.104;2022-12-05T01:27:08;83.90;;;40.60;;
23586;SDS011;11971;51.148;4.104;2022-12-05T01:29:35;82.70;;;39.47;;
23586;SDS011;11971;51.148;4.104;2022-12-05T01:32:02;84.22;;;40.67;;
23586;SDS011;11971;51.148;4.104;2022-12-05T01:34:30;82.85;;;40.03;;
23586;SDS011;11971;51.148;4.104;2022-12-05T01:36:57;83.32;;;40.63;;
23586;SDS011;11971;51.148;4.104;2022-12-05T01:39:23;86.38;;;41.05;;
23586;SDS011;11971;51.148;4.104;2022-12-05T01:41:50;85.65;;;40.30;;
23586;SDS011;11971;51.148;4.104;2022-12-05T01:47:21;83.32;;;39.65;;
23586;SDS011;11971;51.148;4.104;2022-12-05T01:49:50;87.43;;;40.40;;
23586;SDS011;11971;51.148;4.104;2022-12-05T01:52:19;81.22;;;39.80;;
23586;SDS011;11971;51.148;4.104;2022-12-05T01:54:47;80.88;;;39.97;;
23586;SDS011;11971;51.148;4.104;2022-12-05T01:57:16;86.15;;;40.70;;
23586;SDS011;11971;51.148;4.104;2022-12-05T01:59:43;89.10;;;40.05;;
23586;SDS011;11971;51.148;4.104;2022-12-05T02:02:12;82.45;;;40.28;;
23586;SDS011;11971;51.148;4.104;2022-12-05T02:04:40;82.47;;;39.60;;
23586;SDS011;11971;51.148;4.104;2022-12-05T02:07:10;83.80;;;39.60;;
23586;SDS011;11971;51.148;4.104;2022-12-05T02:09:37;79.13;;;39.50;;
23586;SDS011;11971;51.148;4.104;2022-12-05T02:12:04;85.43;;;40.13;;
23586;SDS011;11971;51.148;4.104;2022-12-05T02:14:31;86.45;;;40.70;;
23586;SDS011;11971;51.148;4.104;2022-12-05T02:17:05;81.78;;;40.22;;
23586;SDS011;11971;51.148;4.104;2022-12-05T02:19:48;90.78;;;40.40;;
23586;SDS011;11971;51.148;4.104;2022-12-05T02:22:26;87.35;;;40.17;;
23586;SDS011;11971;51.148;4.104;2022-12-05T02:25:38;83.55;;;39.15;;
23586;SDS011;11971;51.148;4.104;2022-12-05T02:28:28;82.13;;;39.45;;
23586;SDS011;11971;51.148;4.104;2022-12-05T02:31:11;89.60;;;40.25;;
23586;SDS011;11971;51.148;4.104;2022-12-05T02:33:43;81.55;;;38.80;;
23586;SDS011;11971;51.148;4.104;2022-12-05T02:36:12;83.78;;;39.47;;
23586;SDS011;11971;51.148;4.104;2022-12-05T02:38:44;82.63;;;39.80;;
23586;SDS011;11971;51.148;4.104;2022-12-05T02:41:15;84.55;;;40.13;;
23586;SDS011;11971;51.148;4.104;2022-12-05T02:43:46;80.13;;;39.53;;
23586;SDS011;11971;51.148;4.104;2022-12-05T02:46:20;86.30;;;40.20;;
23586;SDS011;11971;51.148;4.104;2022-12-05T02:48:48;88.38;;;41.45;;
23586;SDS011;11971;51.148;4.104;2022-12-05T02:51:17;85.28;;;41.20;;
23586;SDS011;11971;51.148;4.104;2022-12-05T02:53:46;80.93;;;39.55;;
23586;SDS011;11971;51.148;4.104;2022-12-05T02:56:13;79.35;;;40.15;;
23586;SDS011;11971;51.148;4.104;2022-12-05T02:58:42;85.75;;;38.35;;
23586;SDS011;11971;51.148;4.104;2022-12-05T03:01:12;81.25;;;39.47;;
23586;SDS011;11971;51.148;4.104;2022-12-05T03:03:40;83.78;;;39.65;;
23586;SDS011;11971;51.148;4.104;2022-12-05T03:06:09;80.55;;;40.00;;
23586;SDS011;11971;51.148;4.104;2022-12-05T03:08:39;82.60;;;40.40;;
23586;SDS011;11971;51.148;4.104;2022-12-05T03:11:08;80.97;;;40.95;;
23586;SDS011;11971;51.148;4.104;2022-12-05T03:13:35;85.32;;;40.00;;
23586;SDS011;11971;51.148;4.104;2022-12-05T03:16:06;81.47;;;39.47;;
23586;SDS011;11971;51.148;4.104;2022-12-05T03:18:37;82.50;;;40.03;;
23586;SDS011;11971;51.148;4.104;2022-12-05T03:21:07;83.20;;;41.28;;
23586;SDS011;11971;51.148;4.104;2022-12-05T03:23:37;81.07;;;39.78;;
23586;SDS011;11971;51.148;4.104;2022-12-05T03:26:08;83.97;;;40.47;;
23586;SDS011;11971;51.148;4.104;2022-12-05T03:28:41;83.65;;;40.15;;
23586;SDS011;11971;51.148;4.104;2022-12-05T03:31:15;83.78;;;39.85;;
23586;SDS011;11971;51.148;4.104;2022-12-05T03:33:48;82.85;;;40.40;;
23586;SDS011;11971;51.148;4.104;2022-12-05T03:36:16;86.57;;;40.65;;
23586;SDS011;11971;51.148;4.104;2022-12-05T03:38:46;86.05;;;41.03;;
23586;SDS011;11971;51.148;4.104;2022-12-05T03:41:18;84.80;;;41.35;;
23586;SDS011;11971;51.148;4.104;2022-12-05T03:43:52;80.40;;;39.60;;
23586;SDS011;11971;51.148;4.104;2022-12-05T03:46:22;83.47;;;40.33;;
23586;SDS011;11971;51.148;4.104;2022-12-05T03:48:53;83.38;;;41.00;;
23586;SDS011;11971;51.148;4.104;2022-12-05T03:51:22;83.95;;;40.15;;
23586;SDS011;11971;51.148;4.104;2022-12-05T03:53:54;89.03;;;40.22;;
23586;SDS011;11971;51.148;4.104;2022-12-05T03:56:24;80.53;;;40.03;;
23586;SDS011;11971;51.148;4.104;2022-12-05T03:58:57;86.72;;;41.05;;
23586;SDS011;11971;51.148;4.104;2022-12-05T04:01:27;84.03;;;41.53;;
23586;SDS011;11971;51.148;4.104;2022-12-05T04:03:58;85.25;;;39.92;;
23586;SDS011;11971;51.148;4.104;2022-12-05T04:06:28;84.97;;;41.45;;
23586;SDS011;11971;51.148;4.104;2022-12-05T04:08:56;79.70;;;40.20;;
23586;SDS011;11971;51.148;4.104;2022-12-05T04:11:26;89.50;;;41.25;;
23586;SDS011;11971;51.148;4.104;2022-12-05T04:13:55;82.78;;;41.22;;
23586;SDS011;11971;51.148;4.104;2022-12-05T04:16:27;90.68;;;41.67;;
23586;SDS011;11971;51.148;4.104;2022-12-05T04:19:16;85.55;;;41.55;;
23586;SDS011;11971;51.148;4.104;2022-12-05T04:21:45;88.45;;;41.22;;
23586;SDS011;11971;51.148;4.104;2022-12-05T04:27:02;78.88;;;39.72;;
23586;SDS011;11971;51.148;4.104;2022-12-05T04:29:33;88.80;;;41.00;;
23586;SDS011;11971;51.148;4.104;2022-12-05T04:32:05;83.95;;;40.63;;
23586;SDS011;11971;51.148;4.104;2022-12-05T04:34:35;87.68;;;41.60;;
23586;SDS011;11971;51.148;4.104;2022-12-05T04:37:03;87.35;;;39.88;;
23586;SDS011;11971;51.148;4.104;2022-12-05T04:39:33;80.82;;;40.40;;
23586;SDS011;11971;51.148;4.104;2022-12-05T04:42:03;88.97;;;42.13;;
23586;SDS011;11971;51.148;4.104;2022-12-05T04:44:31;79.97;;;39.40;;
23586;SDS011;11971;51.148;4.104;2022-12-05T04:47:00;84.75;;;40.88;;
23586;SDS011;11971;51.148;4.104;2022-12-05T04:49:28;84.10;;;41.13;;
23586;SDS011;11971;51.148;4.104;2022-12-05T04:51:58;86.65;;;41.08;;
23586;SDS011;11971;51.148;4.104;2022-12-05T04:54:27;87.78;;;41.00;;
23586;SDS011;11971;51.148;4.104;2022-12-05T04:56:59;89.10;;;40.88;;
23586;SDS011;11971;51.148;4.104;2022-12-05T04:59:29;78.63;;;39.97;;
23586;SDS011;11971;51.148;4.104;2022-12-05T05:01:57;84.10;;;40.67;;
23586;SDS011;11971;51.148;4.104;2022-12-05T05:04:28;82.10;;;39.90;;
23586;SDS011;11971;51.148;4.104;2022-12-05T05:06:59;89.03;;;41.13;;
23586;SDS011;11971;51.148;4.104;2022-12-05T05:09:25;89.78;;;41.25;;
23586;SDS011;11971;51.148;4.104;2022-12-05T05:11:52;87.13;;;41.45;;
23586;SDS011;11971;51.148;4.104;2022-12-05T05:14:19;83.45;;;40.40;;
23586;SDS011;11971;51.148;4.104;2022-12-05T05:16:45;80.88;;;40.30;;
23586;SDS011;11971;51.148;4.104;2022-12-05T05:19:12;80.38;;;40.55;;
23586;SDS011;11971;51.148;4.104;2022-12-05T05:21:39;86.30;;;41.85;;
23586;SDS011;11971;51.148;4.104;2022-12-05T05:24:08;84.43;;;41.55;;
23586;SDS011;11971;51.148;4.104;2022-12-05T05:26:37;85.15;;;40.88;;
23586;SDS011;11971;51.148;4.104;2022-12-05T05:29:04;96.57;;;42.30;;
23586;SDS011;11971;51.148;4.104;2022-12-05T05:31:31;81.82;;;41.40;;
23586;SDS011;11971;51.148;4.104;2022-12-05T05:33:58;83.13;;;40.63;;
23586;SDS011;11971;51.148;4.104;2022-12-05T05:36:25;81.63;;;40.10;;
23586;SDS011;11971;51.148;4.104;2022-12-05T05:38:53;83.03;;;40.45;;
23586;SDS011;11971;51.148;4.104;2022-12-05T05:41:24;79.88;;;39.90;;
23586;SDS011;11971;51.148;4.104;2022-12-05T05:43:52;80.05;;;40.47;;
23586;SDS011;11971;51.148;4.104;2022-12-05T05:46:19;81.35;;;39.72;;
23586;SDS011;11971;51.148;4.104;2022-12-05T05:48:47;79.65;;;39.40;;
23586;SDS011;11971;51.148;4.104;2022-12-05T05:51:14;81.32;;;40.40;;
23586;SDS011;11971;51.148;4.104;2022-12-05T05:53:42;84.18;;;39.65;;
23586;SDS011;11971;51.148;4.104;2022-12-05T05:56:09;84.53;;;40.55;;
23586;SDS011;11971;51.148;4.104;2022-12-05T05:58:38;83.88;;;41.50;;
23586;SDS011;11971;51.148;4.104;2022-12-05T06:01:06;78.95;;;40.80;;
23586;SDS011;11971;51.148;4.104;2022-12-05T06:03:33;80.93;;;39.80;;
23586;SDS011;11971;51.148;4.104;2022-12-05T06:06:02;77.20;;;40.67;;
23586;SDS011;11971;51.148;4.104;2022-12-05T06:10:56;76.95;;;39.97;;
23586;SDS011;11971;51.148;4.104;2022-12-05T06:13:23;75.15;;;40.03;;
23586;SDS011;11971;51.148;4.104;2022-12-05T06:15:51;80.63;;;39.20;;
23586;SDS011;11971;51.148;4.104;2022-12-05T06:18:18;82.93;;;40.67;;
23586;SDS011;11971;51.148;4.104;2022-12-05T06:20:50;79.82;;;40.03;;
23586;SDS011;11971;51.148;4.104;2022-12-05T06:23:17;83.95;;;41.30;;
23586;SDS011;11971;51.148;4.104;2022-12-05T06:25:46;85.95;;;42.50;;
23586;SDS011;11971;51.148;4.104;2022-12-05T06:28:13;83.35;;;41.42;;
23586;SDS011;11971;51.148;4.104;2022-12-05T06:30:39;88.72;;;41.58;;
23586;SDS011;11971;51.148;4.104;2022-12-05T06:33:07;91.95;;;43.15;;
23586;SDS011;11971;51.148;4.104;2022-12-05T06:35:34;89.22;;;43.03;;
23586;SDS011;11971;51.148;4.104;2022-12-05T06:38:01;85.60;;;42.42;;
23586;SDS011;11971;51.148;4.104;2022-12-05T06:40:28;86.53;;;40.92;;
23586;SDS011;11971;51.148;4.104;2022-12-05T06:42:54;83.88;;;41.03;;
23586;SDS011;11971;51.148;4.104;2022-12-05T06:45:21;87.28;;;41.90;;
23586;SDS011;11971;51.148;4.104;2022-12-05T06:47:49;88.82;;;42.72;;
23586;SDS011;11971;51.148;4.104;2022-12-05T06:50:17;92.55;;;43.35;;
23586;SDS011;11971;51.148;4.104;2022-12-05T06:52:43;89.20;;;41.40;;
23586;SDS011;11971;51.148;4.104;2022-12-05T06:55:10;93.88;;;43.03;;
23586;SDS011;11971;51.148;4.104;2022-12-05T06:57:37;87.53;;;41.83;;
23586;SDS011;11971;51.148;4.104;2022-12-05T07:00:04;92.05;;;42.17;;
23586;SDS011;11971;51.148;4.104;2022-12-05T07:02:45;92.38;;;42.92;;
23586;SDS011;11971;51.148;4.104;2022-12-05T07:05:12;84.65;;;42.05;;
23586;SDS011;11971;51.148;4.104;2022-12-05T07:07:40;89.35;;;42.78;;
23586;SDS011;11971;51.148;4.104;2022-12-05T07:10:06;85.70;;;42.97;;
23586;SDS011;11971;51.148;4.104;2022-12-05T07:12:33;88.53;;;42.53;;
23586;SDS011;11971;51.148;4.104;2022-12-05T07:15:00;93.32;;;43.38;;
23586;SDS011;11971;51.148;4.104;2022-12-05T07:17:27;89.18;;;42.13;;
23586;SDS011;11971;51.148;4.104;2022-12-05T07:19:53;93.15;;;42.92;;
23586;SDS011;11971;51.148;4.104;2022-12-05T07:22:21;81.75;;;41.88;;
23586;SDS011;11971;51.148;4.104;2022-12-05T07:24:50;89.60;;;43.05;;
23586;SDS011;11971;51.148;4.104;2022-12-05T07:27:17;83.75;;;42.40;;
23586;SDS011;11971;51.148;4.104;2022-12-05T07:29:44;84.97;;;42.15;;
23586;SDS011;11971;51.148;4.104;2022-12-05T07:32:11;89.03;;;42.70;;
23586;SDS011;11971;51.148;4.104;2022-12-05T07:34:37;89.40;;;42.60;;
23586;SDS011;11971;51.148;4.104;2022-12-05T07:37:04;86.18;;;41.97;;
23586;SDS011;11971;51.148;4.104;2022-12-05T07:39:31;86.32;;;41.45;;
23586;SDS011;11971;51.148;4.104;2022-12-05T07:41:59;88.97;;;43.10;;
23586;SDS011;11971;51.148;4.104;2022-12-05T07:44:25;85.73;;;43.03;;
23586;SDS011;11971;51.148;4.104;2022-12-05T07:46:52;84.32;;;42.58;;
23586;SDS011;11971;51.148;4.104;2022-12-05T07:49:19;86.47;;;42.97;;
23586;SDS011;11971;51.148;4.104;2022-12-05T07:51:45;84.65;;;41.78;;
23586;SDS011;11971;51.148;4.104;2022-12-05T07:54:12;89.18;;;43.90;;
23586;SDS011;11971;51.148;4.104;2022-12-05T07:56:38;84.18;;;41.88;;
23586;SDS011;11971;51.148;4.104;2022-12-05T07:59:06;86.85;;;42.25;;
23586;SDS011;11971;51.148;4.104;2022-12-05T08:01:33;80.97;;;40.67;;
23586;SDS011;11971;51.148;4.104;2022-12-05T08:04:00;84.03;;;41.95;;
23586;SDS011;11971;51.148;4.104;2022-12-05T08:06:28;81.00;;;41.30;;
23586;SDS011;11971;51.148;4.104;2022-12-05T08:08:55;86.55;;;41.63;;
23586;SDS011;11971;51.148;4.104;2022-12-05T08:11:23;81.57;;;41.38;;
23586;SDS011;11971;51.148;4.104;2022-12-05T08:13:51;86.53;;;41.03;;
23586;SDS011;11971;51.148;4.104;2022-12-05T08:16:20;87.38;;;41.80;;
23586;SDS011;11971;51.148;4.104;2022-12-05T08:18:47;86.63;;;41.22;;
23586;SDS011;11971;51.148;4.104;2022-12-05T08:21:15;88.25;;;41.63;;
23586;SDS011;11971;51.148;4.104;2022-12-05T08:23:42;87.80;;;41.50;;
23586;SDS011;11971;51.148;4.104;2022-12-05T08:26:10;88.07;;;40.70;;
23586;SDS011;11971;51.148;4.104;2022-12-05T08:28:37;85.87;;;41.73;;
23586;SDS011;11971;51.148;4.104;2022-12-05T08:31:05;85.30;;;41.22;;
23586;SDS011;11971;51.148;4.104;2022-12-05T08:33:34;84.63;;;41.40;;
23586;SDS011;11971;51.148;4.104;2022-12-05T08:36:01;83.40;;;40.85;;
23586;SDS011;11971;51.148;4.104;2022-12-05T08:38:29;87.67;;;42.37;;
23586;SDS011;11971;51.148;4.104;2022-12-05T08:40:59;85.97;;;41.97;;
23586;SDS011;11971;51.148;4.104;2022-12-05T08:43:26;90.65;;;41.53;;
23586;SDS011;11971;51.148;4.104;2022-12-05T08:45:53;86.97;;;41.90;;
23586;SDS011;11971;51.148;4.104;2022-12-05T08:48:20;85.32;;;41.33;;
23586;SDS011;11971;51.148;4.104;2022-12-05T08:50:48;79.55;;;40.15;;
23586;SDS011;11971;51.148;4.104;2022-12-05T08:53:15;84.05;;;41.20;;
23586;SDS011;11971;51.148;4.104;2022-12-05T08:55:42;79.15;;;40.92;;
23586;SDS011;11971;51.148;4.104;2022-12-05T08:58:09;89.82;;;41.63;;
23586;SDS011;11971;51.148;4.104;2022-12-05T09:00:36;82.03;;;40.78;;
23586;SDS011;11971;51.148;4.104;2022-12-05T09:03:03;84.30;;;41.47;;
23586;SDS011;11971;51.148;4.104;2022-12-05T09:05:29;86.63;;;41.95;;
23586;SDS011;11971;51.148;4.104;2022-12-05T09:07:57;81.75;;;41.20;;
23586;SDS011;11971;51.148;4.104;2022-12-05T09:10:24;86.00;;;41.13;;
23586;SDS011;11971;51.148;4.104;2022-12-05T09:12:51;80.85;;;41.20;;
23586;SDS011;11971;51.148;4.104;2022-12-05T09:15:18;84.22;;;41.53;;
23586;SDS011;11971;51.148;4.104;2022-12-05T09:17:44;83.85;;;41.63;;
23586;SDS011;11971;51.148;4.104;2022-12-05T09:20:11;84.88;;;41.88;;
23586;SDS011;11971;51.148;4.104;2022-12-05T09:22:38;82.68;;;42.05;;
23586;SDS011;11971;51.148;4.104;2022-12-05T09:25:07;83.50;;;41.38;;
23586;SDS011;11971;51.148;4.104;2022-12-05T09:27:34;80.00;;;40.80;;
23586;SDS011;11971;51.148;4.104;2022-12-05T09:30:01;81.10;;;41.22;;
23586;SDS011;11971;51.148;4.104;2022-12-05T09:32:27;86.53;;;41.72;;
23586;SDS011;11971;51.148;4.104;2022-12-05T09:34:54;87.90;;;43.63;;
23586;SDS011;11971;51.148;4.104;2022-12-05T09:37:21;82.30;;;40.67;;
23586;SDS011;11971;51.148;4.104;2022-12-05T09:39:47;80.68;;;40.80;;
23586;SDS011;11971;51.148;4.104;2022-12-05T09:42:18;86.25;;;44.17;;
23586;SDS011;11971;51.148;4.104;2022-12-05T09:47:49;82.32;;;40.67;;
23586;SDS011;11971;51.148;4.104;2022-12-05T09:50:19;80.18;;;40.95;;
23586;SDS011;11971;51.148;4.104;2022-12-05T09:52:52;81.95;;;40.97;;
23586;SDS011;11971;51.148;4.104;2022-12-05T09:55:24;81.65;;;40.90;;
23586;SDS011;11971;51.148;4.104;2022-12-05T09:57:55;79.78;;;40.33;;
23586;SDS011;11971;51.148;4.104;2022-12-05T10:00:23;79.60;;;39.80;;
23586;SDS011;11971;51.148;4.104;2022-12-05T10:02:53;80.50;;;39.85;;
23586;SDS011;11971;51.148;4.104;2022-12-05T10:05:24;78.38;;;39.50;;
23586;SDS011;11971;51.148;4.104;2022-12-05T10:07:56;80.32;;;39.55;;
23586;SDS011;11971;51.148;4.104;2022-12-05T10:10:31;82.50;;;40.08;;
23586;SDS011;11971;51.148;4.104;2022-12-05T10:13:09;79.95;;;39.30;;
23586;SDS011;11971;51.148;4.104;2022-12-05T10:15:43;84.40;;;40.00;;
23586;SDS011;11971;51.148;4.104;2022-12-05T10:18:13;83.97;;;40.75;;
23586;SDS011;11971;51.148;4.104;2022-12-05T10:20:46;75.05;;;38.38;;
23586;SDS011;11971;51.148;4.104;2022-12-05T10:23:15;79.47;;;39.65;;
23586;SDS011;11971;51.148;4.104;2022-12-05T10:25:44;77.10;;;39.60;;
23586;SDS011;11971;51.148;4.104;2022-12-05T10:28:13;77.10;;;38.67;;
23586;SDS011;11971;51.148;4.104;2022-12-05T10:30:41;80.65;;;39.92;;
23586;SDS011;11971;51.148;4.104;2022-12-05T10:33:11;77.28;;;39.33;;
23586;SDS011;11971;51.148;4.104;2022-12-05T10:35:40;78.53;;;39.63;;
23586;SDS011;11971;51.148;4.104;2022-12-05T10:38:09;77.43;;;38.58;;
23586;SDS011;11971;51.148;4.104;2022-12-05T10:40:38;77.47;;;38.95;;
23586;SDS011;11971;51.148;4.104;2022-12-05T10:43:06;77.97;;;38.60;;
23586;SDS011;11971;51.148;4.104;2022-12-05T10:45:36;74.88;;;37.97;;
23586;SDS011;11971;51.148;4.104;2022-12-05T10:48:08;73.03;;;38.10;;
23586;SDS011;11971;51.148;4.104;2022-12-05T10:50:37;76.60;;;38.83;;
23586;SDS011;11971;51.148;4.104;2022-12-05T10:53:05;75.75;;;38.13;;
23586;SDS011;11971;51.148;4.104;2022-12-05T10:55:33;74.10;;;38.03;;
23586;SDS011;11971;51.148;4.104;2022-12-05T10:58:09;77.10;;;37.92;;
23586;SDS011;11971;51.148;4.104;2022-12-05T11:00:39;75.20;;;37.63;;
23586;SDS011;11971;51.148;4.104;2022-12-05T11:03:20;76.75;;;37.75;;
23586;SDS011;11971;51.148;4.104;2022-12-05T11:05:50;75.43;;;38.28;;
23586;SDS011;11971;51.148;4.104;2022-12-05T11:08:21;76.80;;;38.00;;
23586;SDS011;11971;51.148;4.104;2022-12-05T11:10:49;75.93;;;38.35;;
23586;SDS011;11971;51.148;4.104;2022-12-05T11:13:25;80.93;;;39.30;;
23586;SDS011;11971;51.148;4.104;2022-12-05T11:15:53;76.22;;;38.65;;
23586;SDS011;11971;51.148;4.104;2022-12-05T11:18:25;76.60;;;38.67;;
23586;SDS011;11971;51.148;4.104;2022-12-05T11:20:54;75.38;;;38.33;;
23586;SDS011;11971;51.148;4.104;2022-12-05T11:23:22;75.38;;;37.47;;
23586;SDS011;11971;51.148;4.104;2022-12-05T11:28:24;79.72;;;37.50;;
23586;SDS011;11971;51.148;4.104;2022-12-05T11:33:24;73.28;;;36.78;;
23586;SDS011;11971;51.148;4.104;2022-12-05T11:35:53;72.95;;;37.13;;
23586;SDS011;11971;51.148;4.104;2022-12-05T11:38:23;74.05;;;37.67;;
23586;SDS011;11971;51.148;4.104;2022-12-05T11:40:54;73.50;;;36.95;;
23586;SDS011;11971;51.148;4.104;2022-12-05T11:43:30;74.93;;;37.05;;
23586;SDS011;11971;51.148;4.104;2022-12-05T11:46:12;71.95;;;36.22;;
23586;SDS011;11971;51.148;4.104;2022-12-05T11:48:47;73.88;;;37.13;;
23586;SDS011;11971;51.148;4.104;2022-12-05T11:51:29;75.38;;;37.13;;
23586;SDS011;11971;51.148;4.104;2022-12-05T11:54:21;74.22;;;37.90;;
23586;SDS011;11971;51.148;4.104;2022-12-05T11:57:01;75.93;;;36.75;;
23586;SDS011;11971;51.148;4.104;2022-12-05T11:59:35;71.28;;;36.28;;
23586;SDS011;11971;51.148;4.104;2022-12-05T12:02:15;75.10;;;37.42;;
23586;SDS011;11971;51.148;4.104;2022-12-05T12:04:51;76.05;;;37.17;;
23586;SDS011;11971;51.148;4.104;2022-12-05T12:07:27;77.75;;;38.85;;
23586;SDS011;11971;51.148;4.104;2022-12-05T12:10:09;73.72;;;37.45;;
23586;SDS011;11971;51.148;4.104;2022-12-05T12:12:43;75.43;;;38.13;;
23586;SDS011;11971;51.148;4.104;2022-12-05T12:15:18;75.18;;;37.58;;
23586;SDS011;11971;51.148;4.104;2022-12-05T12:17:55;76.55;;;38.13;;
23586;SDS011;11971;51.148;4.104;2022-12-05T12:20:33;73.82;;;37.63;;
23586;SDS011;11971;51.148;4.104;2022-12-05T12:23:11;73.25;;;37.70;;
23586;SDS011;11971;51.148;4.104;2022-12-05T12:25:58;75.40;;;37.83;;
23586;SDS011;11971;51.148;4.104;2022-12-05T12:28:34;73.93;;;37.53;;
23586;SDS011;11971;51.148;4.104;2022-12-05T12:31:07;77.07;;;38.72;;
23586;SDS011;11971;51.148;4.104;2022-12-05T12:33:53;74.97;;;38.00;;
23586;SDS011;11971;51.148;4.104;2022-12-05T12:36:25;73.97;;;37.92;;
23586;SDS011;11971;51.148;4.104;2022-12-05T12:39:06;73.97;;;38.95;;
23586;SDS011;11971;51.148;4.104;2022-12-05T12:41:44;75.50;;;38.42;;
23586;SDS011;11971;51.148;4.104;2022-12-05T12:44:36;76.47;;;38.58;;
23586;SDS011;11971;51.148;4.104;2022-12-05T12:47:31;75.70;;;38.63;;
23586;SDS011;11971;51.148;4.104;2022-12-05T12:50:10;78.93;;;39.35;;
23586;SDS011;11971;51.148;4.104;2022-12-05T12:52:49;80.78;;;40.15;;
23586;SDS011;11971;51.148;4.104;2022-12-05T12:55:26;77.55;;;39.47;;
23586;SDS011;11971;51.148;4.104;2022-12-05T12:58:03;76.80;;;39.90;;
23586;SDS011;11971;51.148;4.104;2022-12-05T13:00:36;78.82;;;40.50;;
23586;SDS011;11971;51.148;4.104;2022-12-05T13:03:11;77.72;;;39.55;;
23586;SDS011;11971;51.148;4.104;2022-12-05T13:05:43;78.30;;;38.47;;
23586;SDS011;11971;51.148;4.104;2022-12-05T13:08:13;78.07;;;39.15;;
23586;SDS011;11971;51.148;4.104;2022-12-05T13:10:42;78.13;;;39.88;;
23586;SDS011;11971;51.148;4.104;2022-12-05T13:13:10;80.03;;;40.88;;
23586;SDS011;11971;51.148;4.104;2022-12-05T13:15:39;83.55;;;41.28;;
23586;SDS011;11971;51.148;4.104;2022-12-05T13:18:11;84.13;;;41.20;;
23586;SDS011;11971;51.148;4.104;2022-12-05T13:20:40;79.53;;;41.00;;
23586;SDS011;11971;51.148;4.104;2022-12-05T13:23:10;80.10;;;40.35;;
23586;SDS011;11971;51.148;4.104;2022-12-05T13:25:38;83.10;;;41.78;;
23586;SDS011;11971;51.148;4.104;2022-12-05T13:28:05;88.93;;;42.97;;
23586;SDS011;11971;51.148;4.104;2022-12-05T13:30:35;85.43;;;43.28;;
23586;SDS011;11971;51.148;4.104;2022-12-05T13:33:21;83.60;;;42.22;;
23586;SDS011;11971;51.148;4.104;2022-12-05T13:35:53;81.43;;;42.70;;
23586;SDS011;11971;51.148;4.104;2022-12-05T13:38:39;84.03;;;41.67;;
23586;SDS011;11971;51.148;4.104;2022-12-05T13:41:29;84.70;;;41.28;;
23586;SDS011;11971;51.148;4.104;2022-12-05T13:44:25;83.90;;;40.92;;
23586;SDS011;11971;51.148;4.104;2022-12-05T13:46:57;79.60;;;40.63;;
23586;SDS011;11971;51.148;4.104;2022-12-05T13:49:25;80.82;;;41.40;;
23586;SDS011;11971;51.148;4.104;2022-12-05T13:51:55;76.40;;;38.78;;
23586;SDS011;11971;51.148;4.104;2022-12-05T13:54:31;78.72;;;40.28;;
23586;SDS011;11971;51.148;4.104;2022-12-05T14:05:38;79.53;;;39.88;;
23586;SDS011;11971;51.148;4.104;2022-12-05T14:11:21;75.25;;;38.20;;
23586;SDS011;11971;51.148;4.104;2022-12-05T14:13:48;70.57;;;38.38;;
23586;SDS011;11971;51.148;4.104;2022-12-05T14:19:11;76.30;;;38.92;;
23586;SDS011;11971;51.148;4.104;2022-12-05T14:21:43;74.15;;;38.20;;
23586;SDS011;11971;51.148;4.104;2022-12-05T14:24:14;71.70;;;38.22;;
23586;SDS011;11971;51.148;4.104;2022-12-05T14:26:50;72.97;;;39.33;;
23586;SDS011;11971;51.148;4.104;2022-12-05T14:29:26;75.47;;;38.95;;
23586;SDS011;11971;51.148;4.104;2022-12-05T14:32:02;71.93;;;38.60;;
23586;SDS011;11971;51.148;4.104;2022-12-05T14:34:32;74.03;;;39.63;;
23586;SDS011;11971;51.148;4.104;2022-12-05T14:39:35;71.53;;;37.55;;
23586;SDS011;11971;51.148;4.104;2022-12-05T14:42:06;70.05;;;37.35;;
23586;SDS011;11971;51.148;4.104;2022-12-05T14:44:45;72.10;;;37.63;;
23586;SDS011;11971;51.148;4.104;2022-12-05T14:47:16;70.32;;;37.55;;
23586;SDS011;11971;51.148;4.104;2022-12-05T14:49:54;68.88;;;37.22;;
23586;SDS011;11971;51.148;4.104;2022-12-05T14:52:25;71.30;;;37.25;;
23586;SDS011;11971;51.148;4.104;2022-12-05T14:54:54;69.87;;;36.87;;
23586;SDS011;11971;51.148;4.104;2022-12-05T14:57:27;70.97;;;37.15;;
23586;SDS011;11971;51.148;4.104;2022-12-05T14:59:55;72.07;;;38.92;;
23586;SDS011;11971;51.148;4.104;2022-12-05T15:02:24;71.68;;;37.80;;
23586;SDS011;11971;51.148;4.104;2022-12-05T15:04:54;71.78;;;37.38;;
23586;SDS011;11971;51.148;4.104;2022-12-05T15:07:26;74.05;;;37.60;;
23586;SDS011;11971;51.148;4.104;2022-12-05T15:09:56;73.18;;;38.72;;
23586;SDS011;11971;51.148;4.104;2022-12-05T15:12:25;71.47;;;37.65;;
23586;SDS011;11971;51.148;4.104;2022-12-05T15:14:58;70.30;;;37.63;;